aviador You're here:

LEZL Decoded Metar

SEVILLA in SPAIN
Report Time2018-07-21 08:00:00
UTC Time2018-07-21 08:11:44
Flight Rules vfr VFR
WindCalm
Visibility9999 m
Phenomena:N/A
Clouds:N/A
Expected CloudBase > 2,800 ft AGL from Temp-Dew spread
CeilingNone
Temp23°C (ISA +8)
Dew Point16°C (65% RH)
QNH1015 hPa
Density Alt1,230 ft
Elevation102 ft
Report Wrong Elevation
Raw Report
LEZL 210800Z 00000KT CAVOK 23/16 Q1015 NOSIG=

Extra information for LEZL:More info

Metar Taf Metar & Taf Last 4 Metars F.Rules Stats Wind Profile Meteogram Temp Stats Airport Information Weather charts Add Link Nearby VenuesMetar ALERT Operation Metar Decoded Social comments